sensor_id;sensor_type;location;lat;lon;timestamp;P1;durP1;ratioP1;P2;durP2;ratioP2
56653;SDS011;45096;52.302;4.634;2023-04-06T00:01:55;25.45;;;16.85;;
56653;SDS011;45096;52.302;4.634;2023-04-06T00:04:20;22.30;;;15.95;;
56653;SDS011;45096;52.302;4.634;2023-04-06T00:06:46;27.67;;;16.55;;
56653;SDS011;45096;52.302;4.634;2023-04-06T00:09:11;25.02;;;16.08;;
56653;SDS011;45096;52.302;4.634;2023-04-06T00:11:38;24.45;;;15.13;;
56653;SDS011;45096;52.302;4.634;2023-04-06T00:14:03;25.60;;;15.82;;
56653;SDS011;45096;52.302;4.634;2023-04-06T00:16:29;28.15;;;17.10;;
56653;SDS011;45096;52.302;4.634;2023-04-06T00:18:54;26.48;;;17.13;;
56653;SDS011;45096;52.302;4.634;2023-04-06T00:21:20;23.70;;;15.20;;
56653;SDS011;45096;52.302;4.634;2023-04-06T00:23:45;24.80;;;16.05;;
56653;SDS011;45096;52.302;4.634;2023-04-06T00:26:11;26.92;;;16.10;;
56653;SDS011;45096;52.302;4.634;2023-04-06T00:28:38;25.95;;;15.30;;
56653;SDS011;45096;52.302;4.634;2023-04-06T00:31:03;23.63;;;15.75;;
56653;SDS011;45096;52.302;4.634;2023-04-06T00:33:29;25.13;;;16.25;;
56653;SDS011;45096;52.302;4.634;2023-04-06T00:35:54;22.67;;;15.23;;
56653;SDS011;45096;52.302;4.634;2023-04-06T00:38:20;23.67;;;15.27;;
56653;SDS011;45096;52.302;4.634;2023-04-06T00:40:45;24.20;;;15.27;;
56653;SDS011;45096;52.302;4.634;2023-04-06T00:43:11;22.13;;;15.00;;
56653;SDS011;45096;52.302;4.634;2023-04-06T00:45:38;26.63;;;15.75;;
56653;SDS011;45096;52.302;4.634;2023-04-06T00:48:03;20.35;;;14.05;;
56653;SDS011;45096;52.302;4.634;2023-04-06T00:50:29;22.70;;;14.85;;
56653;SDS011;45096;52.302;4.634;2023-04-06T00:52:55;24.88;;;15.90;;
56653;SDS011;45096;52.302;4.634;2023-04-06T00:55:20;20.77;;;14.88;;
56653;SDS011;45096;52.302;4.634;2023-04-06T00:57:46;19.33;;;14.13;;
56653;SDS011;45096;52.302;4.634;2023-04-06T01:00:13;20.63;;;14.25;;
56653;SDS011;45096;52.302;4.634;2023-04-06T01:02:40;20.08;;;13.77;;
56653;SDS011;45096;52.302;4.634;2023-04-06T01:05:06;18.58;;;13.48;;
56653;SDS011;45096;52.302;4.634;2023-04-06T01:07:32;17.70;;;13.50;;
56653;SDS011;45096;52.302;4.634;2023-04-06T01:09:57;20.67;;;13.25;;
56653;SDS011;45096;52.302;4.634;2023-04-06T01:12:23;21.05;;;13.35;;
56653;SDS011;45096;52.302;4.634;2023-04-06T01:14:49;20.02;;;13.25;;
56653;SDS011;45096;52.302;4.634;2023-04-06T01:17:14;20.10;;;13.73;;
56653;SDS011;45096;52.302;4.634;2023-04-06T01:19:41;18.05;;;12.70;;
56653;SDS011;45096;52.302;4.634;2023-04-06T01:22:06;19.40;;;13.90;;
56653;SDS011;45096;52.302;4.634;2023-04-06T01:24:33;22.08;;;13.38;;
56653;SDS011;45096;52.302;4.634;2023-04-06T01:26:59;20.92;;;13.60;;
56653;SDS011;45096;52.302;4.634;2023-04-06T01:29:25;19.75;;;12.85;;
56653;SDS011;45096;52.302;4.634;2023-04-06T01:31:50;22.00;;;13.23;;
56653;SDS011;45096;52.302;4.634;2023-04-06T01:34:16;18.75;;;13.05;;
56653;SDS011;45096;52.302;4.634;2023-04-06T01:36:41;17.10;;;12.10;;
56653;SDS011;45096;52.302;4.634;2023-04-06T01:39:07;17.75;;;12.20;;
56653;SDS011;45096;52.302;4.634;2023-04-06T01:41:33;15.60;;;11.63;;
56653;SDS011;45096;52.302;4.634;2023-04-06T01:43:59;15.18;;;11.23;;
56653;SDS011;45096;52.302;4.634;2023-04-06T01:46:24;16.38;;;11.52;;
56653;SDS011;45096;52.302;4.634;2023-04-06T01:48:50;15.40;;;10.82;;
56653;SDS011;45096;52.302;4.634;2023-04-06T01:51:15;16.73;;;11.63;;
56653;SDS011;45096;52.302;4.634;2023-04-06T01:53:41;15.98;;;11.30;;
56653;SDS011;45096;52.302;4.634;2023-04-06T01:56:06;16.75;;;11.27;;
56653;SDS011;45096;52.302;4.634;2023-04-06T01:58:33;14.45;;;9.95;;
56653;SDS011;45096;52.302;4.634;2023-04-06T02:00:59;16.30;;;11.32;;
56653;SDS011;45096;52.302;4.634;2023-04-06T02:03:24;16.30;;;11.82;;
56653;SDS011;45096;52.302;4.634;2023-04-06T02:05:50;15.98;;;10.82;;
56653;SDS011;45096;52.302;4.634;2023-04-06T02:08:15;14.52;;;9.45;;
56653;SDS011;45096;52.302;4.634;2023-04-06T02:10:40;15.00;;;9.63;;
56653;SDS011;45096;52.302;4.634;2023-04-06T02:13:06;12.80;;;10.05;;
56653;SDS011;45096;52.302;4.634;2023-04-06T02:15:33;12.85;;;10.02;;
56653;SDS011;45096;52.302;4.634;2023-04-06T02:17:58;12.95;;;10.30;;
56653;SDS011;45096;52.302;4.634;2023-04-06T02:20:24;13.98;;;9.77;;
56653;SDS011;45096;52.302;4.634;2023-04-06T02:22:49;11.65;;;9.95;;
56653;SDS011;45096;52.302;4.634;2023-04-06T02:25:15;14.30;;;9.77;;
56653;SDS011;45096;52.302;4.634;2023-04-06T02:27:40;14.52;;;9.57;;
56653;SDS011;45096;52.302;4.634;2023-04-06T02:30:07;12.57;;;9.70;;
56653;SDS011;45096;52.302;4.634;2023-04-06T02:32:34;14.38;;;9.75;;
56653;SDS011;45096;52.302;4.634;2023-04-06T02:35:00;14.02;;;10.10;;
56653;SDS011;45096;52.302;4.634;2023-04-06T02:37:25;19.30;;;11.60;;
56653;SDS011;45096;52.302;4.634;2023-04-06T02:39:50;14.10;;;9.98;;
56653;SDS011;45096;52.302;4.634;2023-04-06T02:42:16;13.80;;;8.98;;
56653;SDS011;45096;52.302;4.634;2023-04-06T02:44:41;11.13;;;8.73;;
56653;SDS011;45096;52.302;4.634;2023-04-06T02:47:07;13.57;;;8.93;;
56653;SDS011;45096;52.302;4.634;2023-04-06T02:49:34;14.40;;;10.13;;
56653;SDS011;45096;52.302;4.634;2023-04-06T02:51:59;12.98;;;9.63;;
56653;SDS011;45096;52.302;4.634;2023-04-06T02:54:25;11.23;;;8.35;;
56653;SDS011;45096;52.302;4.634;2023-04-06T02:56:50;13.75;;;8.63;;
56653;SDS011;45096;52.302;4.634;2023-04-06T02:59:16;12.52;;;9.82;;
56653;SDS011;45096;52.302;4.634;2023-04-06T03:01:41;12.32;;;10.02;;
56653;SDS011;45096;52.302;4.634;2023-04-06T03:04:06;15.65;;;9.57;;
56653;SDS011;45096;52.302;4.634;2023-04-06T03:06:33;10.93;;;9.15;;
56653;SDS011;45096;52.302;4.634;2023-04-06T03:08:59;10.40;;;9.05;;
56653;SDS011;45096;52.302;4.634;2023-04-06T03:11:24;14.10;;;9.85;;
56653;SDS011;45096;52.302;4.634;2023-04-06T03:13:50;14.15;;;10.38;;
56653;SDS011;45096;52.302;4.634;2023-04-06T03:16:15;12.48;;;8.80;;
56653;SDS011;45096;52.302;4.634;2023-04-06T03:18:41;12.25;;;9.43;;
56653;SDS011;45096;52.302;4.634;2023-04-06T03:21:06;13.32;;;9.98;;
56653;SDS011;45096;52.302;4.634;2023-04-06T03:23:33;11.77;;;8.38;;
56653;SDS011;45096;52.302;4.634;2023-04-06T03:25:58;11.98;;;9.73;;
56653;SDS011;45096;52.302;4.634;2023-04-06T03:28:24;10.40;;;8.63;;
56653;SDS011;45096;52.302;4.634;2023-04-06T03:30:49;10.50;;;8.32;;
56653;SDS011;45096;52.302;4.634;2023-04-06T03:33:15;13.45;;;9.48;;
56653;SDS011;45096;52.302;4.634;2023-04-06T03:35:40;9.75;;;8.75;;
56653;SDS011;45096;52.302;4.634;2023-04-06T03:38:06;14.05;;;10.13;;
56653;SDS011;45096;52.302;4.634;2023-04-06T03:40:32;11.65;;;8.80;;
56653;SDS011;45096;52.302;4.634;2023-04-06T03:42:58;13.40;;;9.10;;
56653;SDS011;45096;52.302;4.634;2023-04-06T03:45:23;11.93;;;9.38;;
56653;SDS011;45096;52.302;4.634;2023-04-06T03:47:49;11.98;;;8.80;;
56653;SDS011;45096;52.302;4.634;2023-04-06T03:50:14;13.77;;;9.90;;
56653;SDS011;45096;52.302;4.634;2023-04-06T03:52:40;12.73;;;9.75;;
56653;SDS011;45096;52.302;4.634;2023-04-06T03:55:06;13.95;;;9.82;;
56653;SDS011;45096;52.302;4.634;2023-04-06T03:57:34;12.70;;;9.02;;
56653;SDS011;45096;52.302;4.634;2023-04-06T03:59:59;13.05;;;9.75;;
56653;SDS011;45096;52.302;4.634;2023-04-06T04:02:25;10.43;;;8.57;;
56653;SDS011;45096;52.302;4.634;2023-04-06T04:04:50;10.57;;;8.77;;
56653;SDS011;45096;52.302;4.634;2023-04-06T04:07:16;10.98;;;9.15;;
56653;SDS011;45096;52.302;4.634;2023-04-06T04:09:41;14.05;;;8.80;;
56653;SDS011;45096;52.302;4.634;2023-04-06T04:12:07;12.38;;;9.50;;
56653;SDS011;45096;52.302;4.634;2023-04-06T04:14:33;10.88;;;9.55;;
56653;SDS011;45096;52.302;4.634;2023-04-06T04:16:59;12.73;;;9.80;;
56653;SDS011;45096;52.302;4.634;2023-04-06T04:19:24;10.20;;;8.73;;
56653;SDS011;45096;52.302;4.634;2023-04-06T04:21:50;17.70;;;10.35;;
56653;SDS011;45096;52.302;4.634;2023-04-06T04:24:15;12.20;;;9.50;;
56653;SDS011;45096;52.302;4.634;2023-04-06T04:26:41;11.85;;;10.13;;
56653;SDS011;45096;52.302;4.634;2023-04-06T04:29:06;13.02;;;10.05;;
56653;SDS011;45096;52.302;4.634;2023-04-06T04:31:33;14.32;;;8.82;;
56653;SDS011;45096;52.302;4.634;2023-04-06T04:33:59;11.85;;;9.85;;
56653;SDS011;45096;52.302;4.634;2023-04-06T04:36:25;13.50;;;9.90;;
56653;SDS011;45096;52.302;4.634;2023-04-06T04:38:50;15.23;;;10.70;;
56653;SDS011;45096;52.302;4.634;2023-04-06T04:41:15;16.33;;;10.43;;
56653;SDS011;45096;52.302;4.634;2023-04-06T04:43:41;12.88;;;10.50;;
56653;SDS011;45096;52.302;4.634;2023-04-06T04:46:06;14.30;;;10.43;;
56653;SDS011;45096;52.302;4.634;2023-04-06T04:48:33;15.60;;;10.52;;
56653;SDS011;45096;52.302;4.634;2023-04-06T04:50:59;14.15;;;9.73;;
56653;SDS011;45096;52.302;4.634;2023-04-06T04:53:24;11.93;;;9.50;;
56653;SDS011;45096;52.302;4.634;2023-04-06T04:55:50;13.50;;;9.73;;
56653;SDS011;45096;52.302;4.634;2023-04-06T04:58:15;14.25;;;10.77;;
56653;SDS011;45096;52.302;4.634;2023-04-06T05:00:41;12.40;;;9.85;;
56653;SDS011;45096;52.302;4.634;2023-04-06T05:03:06;14.40;;;10.45;;
56653;SDS011;45096;52.302;4.634;2023-04-06T05:05:33;14.68;;;10.20;;
56653;SDS011;45096;52.302;4.634;2023-04-06T05:07:59;12.20;;;9.75;;
56653;SDS011;45096;52.302;4.634;2023-04-06T05:10:24;13.90;;;10.40;;
56653;SDS011;45096;52.302;4.634;2023-04-06T05:12:50;14.18;;;11.10;;
56653;SDS011;45096;52.302;4.634;2023-04-06T05:15:15;14.07;;;10.25;;
56653;SDS011;45096;52.302;4.634;2023-04-06T05:17:41;14.48;;;10.93;;
56653;SDS011;45096;52.302;4.634;2023-04-06T05:20:07;13.05;;;10.15;;
56653;SDS011;45096;52.302;4.634;2023-04-06T05:22:34;16.38;;;10.82;;
56653;SDS011;45096;52.302;4.634;2023-04-06T05:25:00;13.85;;;9.88;;
56653;SDS011;45096;52.302;4.634;2023-04-06T05:27:26;14.52;;;10.45;;
56653;SDS011;45096;52.302;4.634;2023-04-06T05:29:51;14.98;;;10.52;;
56653;SDS011;45096;52.302;4.634;2023-04-06T05:32:17;14.90;;;10.20;;
56653;SDS011;45096;52.302;4.634;2023-04-06T05:34:42;11.35;;;9.93;;
56653;SDS011;45096;52.302;4.634;2023-04-06T05:37:08;12.85;;;10.50;;
56653;SDS011;45096;52.302;4.634;2023-04-06T05:39:35;13.43;;;10.23;;
56653;SDS011;45096;52.302;4.634;2023-04-06T05:42:04;18.58;;;11.77;;
56653;SDS011;45096;52.302;4.634;2023-04-06T05:44:30;15.05;;;10.80;;
56653;SDS011;45096;52.302;4.634;2023-04-06T05:46:55;16.52;;;11.63;;
56653;SDS011;45096;52.302;4.634;2023-04-06T05:49:20;15.13;;;10.57;;
56653;SDS011;45096;52.302;4.634;2023-04-06T05:51:46;12.13;;;9.20;;
56653;SDS011;45096;52.302;4.634;2023-04-06T05:54:11;14.77;;;10.57;;
56653;SDS011;45096;52.302;4.634;2023-04-06T05:56:38;15.00;;;10.88;;
56653;SDS011;45096;52.302;4.634;2023-04-06T05:59:04;16.52;;;11.52;;
56653;SDS011;45096;52.302;4.634;2023-04-06T06:01:30;14.63;;;10.52;;
56653;SDS011;45096;52.302;4.634;2023-04-06T06:03:55;14.02;;;10.30;;
56653;SDS011;45096;52.302;4.634;2023-04-06T06:06:21;16.40;;;10.73;;
56653;SDS011;45096;52.302;4.634;2023-04-06T06:08:46;14.57;;;10.68;;
56653;SDS011;45096;52.302;4.634;2023-04-06T06:11:12;14.93;;;10.75;;
56653;SDS011;45096;52.302;4.634;2023-04-06T06:13:38;14.38;;;10.77;;
56653;SDS011;45096;52.302;4.634;2023-04-06T06:16:04;14.95;;;10.07;;
56653;SDS011;45096;52.302;4.634;2023-04-06T06:18:29;15.45;;;10.50;;
56653;SDS011;45096;52.302;4.634;2023-04-06T06:20:55;15.50;;;11.10;;
56653;SDS011;45096;52.302;4.634;2023-04-06T06:23:20;15.07;;;10.02;;
56653;SDS011;45096;52.302;4.634;2023-04-06T06:25:46;15.27;;;11.13;;
56653;SDS011;45096;52.302;4.634;2023-04-06T06:28:11;11.98;;;9.80;;
56653;SDS011;45096;52.302;4.634;2023-04-06T06:30:39;13.70;;;10.10;;
56653;SDS011;45096;52.302;4.634;2023-04-06T06:33:05;13.63;;;10.43;;
56653;SDS011;45096;52.302;4.634;2023-04-06T06:35:30;14.10;;;10.30;;
56653;SDS011;45096;52.302;4.634;2023-04-06T06:37:56;17.00;;;10.73;;
56653;SDS011;45096;52.302;4.634;2023-04-06T06:40:22;15.35;;;10.93;;
56653;SDS011;45096;52.302;4.634;2023-04-06T06:42:48;16.17;;;11.18;;
56653;SDS011;45096;52.302;4.634;2023-04-06T06:45:13;16.77;;;10.88;;
56653;SDS011;45096;52.302;4.634;2023-04-06T06:47:40;19.08;;;10.55;;
56653;SDS011;45096;52.302;4.634;2023-04-06T06:50:06;16.83;;;10.95;;
56653;SDS011;45096;52.302;4.634;2023-04-06T06:52:32;15.38;;;10.60;;
56653;SDS011;45096;52.302;4.634;2023-04-06T06:54:57;15.85;;;11.68;;
56653;SDS011;45096;52.302;4.634;2023-04-06T06:57:23;16.02;;;11.52;;
56653;SDS011;45096;52.302;4.634;2023-04-06T06:59:48;14.30;;;11.32;;
56653;SDS011;45096;52.302;4.634;2023-04-06T07:02:14;16.23;;;11.88;;
56653;SDS011;45096;52.302;4.634;2023-04-06T07:04:41;17.92;;;12.05;;
56653;SDS011;45096;52.302;4.634;2023-04-06T07:07:06;16.75;;;11.35;;
56653;SDS011;45096;52.302;4.634;2023-04-06T07:09:32;17.95;;;13.45;;
56653;SDS011;45096;52.302;4.634;2023-04-06T07:11:57;18.35;;;12.65;;
56653;SDS011;45096;52.302;4.634;2023-04-06T07:14:23;19.08;;;12.85;;
56653;SDS011;45096;52.302;4.634;2023-04-06T07:16:48;15.82;;;11.88;;
56653;SDS011;45096;52.302;4.634;2023-04-06T07:19:14;17.90;;;11.80;;
56653;SDS011;45096;52.302;4.634;2023-04-06T07:21:40;16.25;;;12.45;;
56653;SDS011;45096;52.302;4.634;2023-04-06T07:24:06;18.00;;;13.93;;
56653;SDS011;45096;52.302;4.634;2023-04-06T07:26:32;18.95;;;12.02;;
56653;SDS011;45096;52.302;4.634;2023-04-06T07:28:57;16.23;;;11.15;;
56653;SDS011;45096;52.302;4.634;2023-04-06T07:31:22;18.42;;;13.70;;
56653;SDS011;45096;52.302;4.634;2023-04-06T07:33:48;15.40;;;12.82;;
56653;SDS011;45096;52.302;4.634;2023-04-06T07:36:13;17.98;;;12.35;;
56653;SDS011;45096;52.302;4.634;2023-04-06T07:38:40;20.35;;;13.85;;
56653;SDS011;45096;52.302;4.634;2023-04-06T07:41:06;20.08;;;12.95;;
56653;SDS011;45096;52.302;4.634;2023-04-06T07:43:31;19.48;;;13.20;;
56653;SDS011;45096;52.302;4.634;2023-04-06T07:45:57;19.70;;;13.02;;
56653;SDS011;45096;52.302;4.634;2023-04-06T07:48:22;20.27;;;13.65;;
56653;SDS011;45096;52.302;4.634;2023-04-06T07:50:48;15.80;;;12.70;;
56653;SDS011;45096;52.302;4.634;2023-04-06T07:53:13;19.63;;;13.88;;
56653;SDS011;45096;52.302;4.634;2023-04-06T07:55:40;22.15;;;13.85;;
56653;SDS011;45096;52.302;4.634;2023-04-06T07:58:05;20.15;;;13.38;;
56653;SDS011;45096;52.302;4.634;2023-04-06T08:00:31;17.67;;;12.20;;
56653;SDS011;45096;52.302;4.634;2023-04-06T08:02:56;21.17;;;13.65;;
56653;SDS011;45096;52.302;4.634;2023-04-06T08:05:22;20.70;;;13.13;;
56653;SDS011;45096;52.302;4.634;2023-04-06T08:07:47;20.75;;;13.30;;
56653;SDS011;45096;52.302;4.634;2023-04-06T08:10:13;19.60;;;14.20;;
56653;SDS011;45096;52.302;4.634;2023-04-06T08:12:40;21.67;;;13.77;;
56653;SDS011;45096;52.302;4.634;2023-04-06T08:15:05;24.92;;;15.63;;
56653;SDS011;45096;52.302;4.634;2023-04-06T08:17:31;23.30;;;15.02;;
56653;SDS011;45096;52.302;4.634;2023-04-06T08:19:57;22.48;;;15.73;;
56653;SDS011;45096;52.302;4.634;2023-04-06T08:22:22;24.05;;;15.15;;
56653;SDS011;45096;52.302;4.634;2023-04-06T08:24:48;21.30;;;14.27;;
56653;SDS011;45096;52.302;4.634;2023-04-06T08:27:13;19.42;;;12.77;;
56653;SDS011;45096;52.302;4.634;2023-04-06T08:29:40;18.40;;;13.20;;
56653;SDS011;45096;52.302;4.634;2023-04-06T08:32:06;21.40;;;14.43;;
56653;SDS011;45096;52.302;4.634;2023-04-06T08:34:31;20.77;;;13.32;;
56653;SDS011;45096;52.302;4.634;2023-04-06T08:36:57;23.38;;;13.35;;
56653;SDS011;45096;52.302;4.634;2023-04-06T08:39:23;19.38;;;13.55;;
56653;SDS011;45096;52.302;4.634;2023-04-06T08:41:48;21.73;;;14.02;;
56653;SDS011;45096;52.302;4.634;2023-04-06T08:44:14;21.48;;;13.95;;
56653;SDS011;45096;52.302;4.634;2023-04-06T08:46:41;21.45;;;13.75;;
56653;SDS011;45096;52.302;4.634;2023-04-06T08:49:07;21.83;;;13.75;;
56653;SDS011;45096;52.302;4.634;2023-04-06T08:51:32;19.70;;;12.98;;
56653;SDS011;45096;52.302;4.634;2023-04-06T08:53:58;20.85;;;13.32;;
56653;SDS011;45096;52.302;4.634;2023-04-06T08:56:25;20.35;;;14.68;;
56653;SDS011;45096;52.302;4.634;2023-04-06T08:58:52;19.08;;;13.35;;
56653;SDS011;45096;52.302;4.634;2023-04-06T09:01:20;21.77;;;13.73;;
56653;SDS011;45096;52.302;4.634;2023-04-06T09:03:48;20.10;;;14.20;;
56653;SDS011;45096;52.302;4.634;2023-04-06T09:06:14;19.25;;;13.98;;
56653;SDS011;45096;52.302;4.634;2023-04-06T09:08:40;19.65;;;12.95;;
56653;SDS011;45096;52.302;4.634;2023-04-06T09:11:06;19.70;;;14.13;;
56653;SDS011;45096;52.302;4.634;2023-04-06T09:13:43;21.83;;;13.80;;
56653;SDS011;45096;52.302;4.634;2023-04-06T09:16:09;21.27;;;13.52;;
56653;SDS011;45096;52.302;4.634;2023-04-06T09:18:35;20.38;;;14.05;;
56653;SDS011;45096;52.302;4.634;2023-04-06T09:21:02;17.85;;;13.30;;
56653;SDS011;45096;52.302;4.634;2023-04-06T09:23:29;22.98;;;14.30;;
56653;SDS011;45096;52.302;4.634;2023-04-06T09:26:07;18.63;;;13.38;;
56653;SDS011;45096;52.302;4.634;2023-04-06T09:28:46;22.05;;;14.38;;
56653;SDS011;45096;52.302;4.634;2023-04-06T09:31:13;23.80;;;14.15;;
56653;SDS011;45096;52.302;4.634;2023-04-06T09:33:40;20.13;;;14.07;;
56653;SDS011;45096;52.302;4.634;2023-04-06T09:36:11;22.85;;;15.23;;
56653;SDS011;45096;52.302;4.634;2023-04-06T09:38:37;18.17;;;13.77;;
56653;SDS011;45096;52.302;4.634;2023-04-06T09:41:03;19.60;;;14.20;;
56653;SDS011;45096;52.302;4.634;2023-04-06T09:43:29;20.35;;;14.18;;
56653;SDS011;45096;52.302;4.634;2023-04-06T09:45:55;22.88;;;13.25;;
56653;SDS011;45096;52.302;4.634;2023-04-06T09:48:20;18.27;;;13.27;;
56653;SDS011;45096;52.302;4.634;2023-04-06T09:50:46;19.15;;;13.52;;
56653;SDS011;45096;52.302;4.634;2023-04-06T09:53:14;16.65;;;11.95;;
56653;SDS011;45096;52.302;4.634;2023-04-06T09:55:40;19.45;;;13.10;;
56653;SDS011;45096;52.302;4.634;2023-04-06T09:58:09;17.60;;;12.52;;
56653;SDS011;45096;52.302;4.634;2023-04-06T10:00:43;16.77;;;11.30;;
56653;SDS011;45096;52.302;4.634;2023-04-06T10:03:12;14.93;;;10.90;;
56653;SDS011;45096;52.302;4.634;2023-04-06T10:05:42;14.32;;;10.82;;
56653;SDS011;45096;52.302;4.634;2023-04-06T10:08:11;15.02;;;10.45;;
56653;SDS011;45096;52.302;4.634;2023-04-06T10:10:38;14.18;;;10.50;;
56653;SDS011;45096;52.302;4.634;2023-04-06T10:13:04;12.82;;;9.85;;
56653;SDS011;45096;52.302;4.634;2023-04-06T10:15:30;13.60;;;9.68;;
56653;SDS011;45096;52.302;4.634;2023-04-06T10:17:56;16.85;;;9.63;;
56653;SDS011;45096;52.302;4.634;2023-04-06T10:20:23;11.68;;;8.70;;
56653;SDS011;45096;52.302;4.634;2023-04-06T10:22:53;15.80;;;9.32;;
56653;SDS011;45096;52.302;4.634;2023-04-06T10:25:27;14.38;;;8.48;;
56653;SDS011;45096;52.302;4.634;2023-04-06T10:27:58;10.20;;;7.28;;
56653;SDS011;45096;52.302;4.634;2023-04-06T10:30:24;11.65;;;8.38;;
56653;SDS011;45096;52.302;4.634;2023-04-06T10:32:49;10.48;;;8.02;;
56653;SDS011;45096;52.302;4.634;2023-04-06T10:35:15;12.13;;;8.05;;
56653;SDS011;45096;52.302;4.634;2023-04-06T10:37:50;11.38;;;7.50;;
56653;SDS011;45096;52.302;4.634;2023-04-06T10:40:23;11.05;;;7.97;;
56653;SDS011;45096;52.302;4.634;2023-04-06T10:42:50;10.52;;;7.57;;
56653;SDS011;45096;52.302;4.634;2023-04-06T10:45:20;11.32;;;7.55;;
56653;SDS011;45096;52.302;4.634;2023-04-06T10:47:46;8.93;;;7.30;;
56653;SDS011;45096;52.302;4.634;2023-04-06T10:50:12;8.90;;;6.82;;
56653;SDS011;45096;52.302;4.634;2023-04-06T10:52:39;8.77;;;6.55;;
56653;SDS011;45096;52.302;4.634;2023-04-06T10:55:05;10.00;;;6.65;;
56653;SDS011;45096;52.302;4.634;2023-04-06T10:57:31;8.63;;;6.35;;
56653;SDS011;45096;52.302;4.634;2023-04-06T10:59:58;7.85;;;6.43;;
56653;SDS011;45096;52.302;4.634;2023-04-06T11:02:23;8.80;;;6.90;;
56653;SDS011;45096;52.302;4.634;2023-04-06T11:04:55;7.30;;;6.10;;
56653;SDS011;45096;52.302;4.634;2023-04-06T11:07:22;9.25;;;6.32;;
56653;SDS011;45096;52.302;4.634;2023-04-06T11:09:49;10.93;;;6.35;;
56653;SDS011;45096;52.302;4.634;2023-04-06T11:12:20;6.03;;;5.53;;
56653;SDS011;45096;52.302;4.634;2023-04-06T11:14:52;10.68;;;6.60;;
56653;SDS011;45096;52.302;4.634;2023-04-06T11:17:19;8.23;;;5.80;;
56653;SDS011;45096;52.302;4.634;2023-04-06T11:19:50;8.10;;;6.70;;
56653;SDS011;45096;52.302;4.634;2023-04-06T11:22:16;8.23;;;6.05;;
56653;SDS011;45096;52.302;4.634;2023-04-06T11:24:41;7.18;;;6.00;;
56653;SDS011;45096;52.302;4.634;2023-04-06T11:27:07;6.15;;;5.55;;
56653;SDS011;45096;52.302;4.634;2023-04-06T11:29:32;8.45;;;6.20;;
56653;SDS011;45096;52.302;4.634;2023-04-06T11:31:59;6.53;;;5.93;;
56653;SDS011;45096;52.302;4.634;2023-04-06T11:34:28;6.63;;;5.88;;
56653;SDS011;45096;52.302;4.634;2023-04-06T11:36:54;7.55;;;6.35;;
56653;SDS011;45096;52.302;4.634;2023-04-06T11:39:21;7.10;;;5.75;;
56653;SDS011;45096;52.302;4.634;2023-04-06T11:41:47;9.25;;;6.68;;
56653;SDS011;45096;52.302;4.634;2023-04-06T11:44:13;7.28;;;6.10;;
56653;SDS011;45096;52.302;4.634;2023-04-06T11:46:38;5.95;;;5.35;;
56653;SDS011;45096;52.302;4.634;2023-04-06T11:49:04;6.40;;;5.72;;
56653;SDS011;45096;52.302;4.634;2023-04-06T11:51:35;7.20;;;5.50;;
56653;SDS011;45096;52.302;4.634;2023-04-06T11:54:00;8.88;;;5.65;;
56653;SDS011;45096;52.302;4.634;2023-04-06T11:56:26;5.90;;;5.40;;
56653;SDS011;45096;52.302;4.634;2023-04-06T11:58:54;5.97;;;5.13;;
56653;SDS011;45096;52.302;4.634;2023-04-06T12:01:19;8.15;;;6.88;;
56653;SDS011;45096;52.302;4.634;2023-04-06T12:03:45;9.63;;;7.18;;
56653;SDS011;45096;52.302;4.634;2023-04-06T12:06:10;9.32;;;6.18;;
56653;SDS011;45096;52.302;4.634;2023-04-06T12:08:37;9.65;;;6.80;;
56653;SDS011;45096;52.302;4.634;2023-04-06T12:11:03;7.75;;;6.32;;
56653;SDS011;45096;52.302;4.634;2023-04-06T12:13:28;7.47;;;6.68;;
56653;SDS011;45096;52.302;4.634;2023-04-06T12:15:54;7.05;;;5.93;;
56653;SDS011;45096;52.302;4.634;2023-04-06T12:18:19;9.52;;;6.68;;
56653;SDS011;45096;52.302;4.634;2023-04-06T12:20:45;8.55;;;6.40;;
56653;SDS011;45096;52.302;4.634;2023-04-06T12:23:10;7.65;;;6.00;;
56653;SDS011;45096;52.302;4.634;2023-04-06T12:25:37;7.55;;;6.45;;
56653;SDS011;45096;52.302;4.634;2023-04-06T12:28:04;8.43;;;5.90;;
56653;SDS011;45096;52.302;4.634;2023-04-06T12:30:29;6.22;;;5.63;;
56653;SDS011;45096;52.302;4.634;2023-04-06T12:32:55;7.03;;;6.32;;
56653;SDS011;45096;52.302;4.634;2023-04-06T12:35:20;6.88;;;6.15;;
56653;SDS011;45096;52.302;4.634;2023-04-06T12:37:45;7.03;;;6.32;;
56653;SDS011;45096;52.302;4.634;2023-04-06T12:40:11;10.60;;;6.43;;
56653;SDS011;45096;52.302;4.634;2023-04-06T12:42:39;6.03;;;5.43;;
56653;SDS011;45096;52.302;4.634;2023-04-06T12:45:05;6.57;;;5.80;;
56653;SDS011;45096;52.302;4.634;2023-04-06T12:47:31;7.50;;;5.82;;
56653;SDS011;45096;52.302;4.634;2023-04-06T12:49:57;7.00;;;6.13;;
56653;SDS011;45096;52.302;4.634;2023-04-06T12:52:22;8.50;;;6.22;;
56653;SDS011;45096;52.302;4.634;2023-04-06T12:54:48;7.10;;;6.45;;
56653;SDS011;45096;52.302;4.634;2023-04-06T12:57:13;7.22;;;6.03;;
56653;SDS011;45096;52.302;4.634;2023-04-06T12:59:40;6.53;;;5.93;;
56653;SDS011;45096;52.302;4.634;2023-04-06T13:02:08;6.63;;;5.88;;
56653;SDS011;45096;52.302;4.634;2023-04-06T13:04:33;7.95;;;6.05;;
56653;SDS011;45096;52.302;4.634;2023-04-06T13:06:59;7.05;;;5.65;;
56653;SDS011;45096;52.302;4.634;2023-04-06T13:09:24;6.05;;;5.38;;
56653;SDS011;45096;52.302;4.634;2023-04-06T13:11:50;6.57;;;5.88;;
56653;SDS011;45096;52.302;4.634;2023-04-06T13:14:15;6.38;;;5.78;;
56653;SDS011;45096;52.302;4.634;2023-04-06T13:16:42;6.75;;;5.30;;
56653;SDS011;45096;52.302;4.634;2023-04-06T13:19:07;6.13;;;5.45;;
56653;SDS011;45096;52.302;4.634;2023-04-06T13:21:33;6.85;;;6.15;;
56653;SDS011;45096;52.302;4.634;2023-04-06T13:23:58;6.55;;;5.85;;
56653;SDS011;45096;52.302;4.634;2023-04-06T13:26:24;6.55;;;5.50;;
56653;SDS011;45096;52.302;4.634;2023-04-06T13:28:49;5.63;;;4.97;;
56653;SDS011;45096;52.302;4.634;2023-04-06T13:31:15;7.75;;;5.45;;
56653;SDS011;45096;52.302;4.634;2023-04-06T13:33:41;6.18;;;5.57;;
56653;SDS011;45096;52.302;4.634;2023-04-06T13:36:07;8.15;;;5.45;;
56653;SDS011;45096;52.302;4.634;2023-04-06T13:38:33;5.78;;;4.68;;
56653;SDS011;45096;52.302;4.634;2023-04-06T13:40:58;8.10;;;5.30;;
56653;SDS011;45096;52.302;4.634;2023-04-06T13:43:24;7.93;;;5.80;;
56653;SDS011;45096;52.302;4.634;2023-04-06T13:45:49;7.00;;;6.03;;
56653;SDS011;45096;52.302;4.634;2023-04-06T13:48:15;7.93;;;6.10;;
56653;SDS011;45096;52.302;4.634;2023-04-06T13:50:42;6.82;;;6.22;;
56653;SDS011;45096;52.302;4.634;2023-04-06T13:53:09;7.05;;;5.88;;
56653;SDS011;45096;52.302;4.634;2023-04-06T13:55:34;9.45;;;6.40;;
56653;SDS011;45096;52.302;4.634;2023-04-06T13:58:00;7.35;;;5.60;;
56653;SDS011;45096;52.302;4.634;2023-04-06T14:00:25;6.78;;;5.65;;
56653;SDS011;45096;52.302;4.634;2023-04-06T14:02:53;6.63;;;6.00;;
56653;SDS011;45096;52.302;4.634;2023-04-06T14:05:18;6.55;;;5.43;;
56653;SDS011;45096;52.302;4.634;2023-04-06T14:07:45;6.70;;;5.38;;
56653;SDS011;45096;52.302;4.634;2023-04-06T14:10:11;6.80;;;5.85;;
56653;SDS011;45096;52.302;4.634;2023-04-06T14:12:36;7.30;;;5.78;;
56653;SDS011;45096;52.302;4.634;2023-04-06T14:15:02;6.30;;;5.70;;
56653;SDS011;45096;52.302;4.634;2023-04-06T14:17:27;6.47;;;5.43;;
56653;SDS011;45096;52.302;4.634;2023-04-06T14:19:53;5.93;;;5.32;;
56653;SDS011;45096;52.302;4.634;2023-04-06T14:22:18;6.05;;;5.45;;
56653;SDS011;45096;52.302;4.634;2023-04-06T14:24:45;6.78;;;6.07;;